createdAt,value
2023-01-10T00:08:14.533Z,3
2023-01-10T00:37:09.954Z,2
2023-01-10T01:06:04.677Z,1
2023-01-10T01:35:03.979Z,1
2023-01-10T02:04:03.607Z,3
2023-01-10T02:32:56.574Z,4
2023-01-10T03:01:07.963Z,4
2023-01-10T03:30:02.889Z,5
2023-01-10T03:58:58.927Z,6
2023-01-10T04:28:00.040Z,6
2023-01-10T04:56:58.644Z,6
2023-01-10T05:25:59.969Z,7
2023-01-10T05:54:51.677Z,6
2023-01-10T06:23:28.706Z,6
2023-01-10T06:51:46.865Z,6
2023-01-10T07:20:30.122Z,9
2023-01-10T07:49:06.546Z,6
2023-01-10T08:17:34.798Z,7
2023-01-10T08:46:03.587Z,7
2023-01-10T09:14:41.331Z,6
2023-01-10T09:43:36.139Z,7
2023-01-10T10:11:59.752Z,6
2023-01-10T10:40:50.523Z,8
2023-01-10T11:09:28.131Z,7
2023-01-10T11:38:10.921Z,9
2023-01-10T12:06:45.143Z,7
2023-01-10T12:35:17.215Z,6
2023-01-10T13:03:44.458Z,6
2023-01-10T13:32:11.338Z,6
2023-01-10T14:00:33.891Z,4
2023-01-10T14:29:02.365Z,7
2023-01-10T14:57:17.229Z,7
2023-01-10T15:25:44.104Z,12
2023-01-10T15:54:24.663Z,7
2023-01-10T16:22:55.730Z,12
2023-01-10T16:51:42.343Z,9
2023-01-10T17:20:16.708Z,10
2023-01-10T17:48:59.171Z,7
2023-01-10T18:17:35.831Z,7
2023-01-10T18:46:26.483Z,4
2023-01-10T19:15:09.000Z,5
2023-01-10T19:43:52.644Z,4
2023-01-10T20:12:40.154Z,4
2023-01-10T20:41:31.935Z,3
2023-01-10T21:10:31.473Z,4
2023-01-10T21:39:10.365Z,4
2023-01-10T22:07:45.956Z,5
2023-01-10T22:36:31.398Z,4
2023-01-10T23:05:02.006Z,4
2023-01-10T23:33:47.236Z,3
